createdAt,value
2019-03-31T00:01:57.132Z,99.90
2019-03-31T00:04:32.934Z,99.90
2019-03-31T00:07:01.859Z,99.90
2019-03-31T00:09:30.931Z,99.90
2019-03-31T00:12:06.398Z,99.90
2019-03-31T00:14:35.408Z,99.90
2019-03-31T00:17:11.043Z,99.90
2019-03-31T00:19:39.947Z,99.90
2019-03-31T00:22:09.061Z,99.90
2019-03-31T00:24:45.506Z,99.90
2019-03-31T00:27:14.487Z,99.90
2019-03-31T00:29:50.644Z,99.90
2019-03-31T00:32:25.732Z,99.90
2019-03-31T00:35:01.961Z,99.90
2019-03-31T00:37:31.007Z,99.90
2019-03-31T00:40:00.040Z,99.90
2019-03-31T00:42:36.324Z,99.90
2019-03-31T00:45:13.801Z,99.90
2019-03-31T00:47:49.857Z,99.90
2019-03-31T00:50:18.954Z,99.90
2019-03-31T00:52:48.051Z,99.90
2019-03-31T00:55:24.237Z,99.90
2019-03-31T00:57:53.307Z,99.90
2019-03-31T01:00:31.827Z,99.90
2019-03-31T01:03:01.141Z,99.90
2019-03-31T01:05:30.242Z,99.90
2019-03-31T01:08:06.683Z,99.90
2019-03-31T01:10:35.558Z,99.90
2019-03-31T01:13:11.334Z,99.90
2019-03-31T01:15:42.189Z,99.90
2019-03-31T01:18:11.966Z,99.90
2019-03-31T01:20:47.946Z,99.90
2019-03-31T01:23:16.948Z,99.90
2019-03-31T01:25:53.069Z,99.90
2019-03-31T01:28:22.507Z,99.90
2019-03-31T01:30:51.699Z,99.90
2019-03-31T01:33:35.057Z,99.90
2019-03-31T01:36:04.902Z,99.90
2019-03-31T01:38:40.587Z,99.90
2019-03-31T01:41:09.723Z,99.90
2019-03-31T01:43:51.794Z,99.90
2019-03-31T01:46:23.557Z,99.90
2019-03-31T01:48:53.023Z,99.90
2019-03-31T01:51:28.604Z,99.90
2019-03-31T01:53:57.619Z,99.90
2019-03-31T01:56:33.587Z,99.90
2019-03-31T01:59:02.961Z,99.90
2019-03-31T02:01:31.954Z,99.90
2019-03-31T02:04:07.617Z,99.90
2019-03-31T02:06:36.695Z,99.90
2019-03-31T02:09:13.262Z,99.90
2019-03-31T02:11:42.370Z,99.90
2019-03-31T02:14:11.466Z,99.90
2019-03-31T02:16:48.622Z,99.90
2019-03-31T02:19:17.649Z,99.90
2019-03-31T02:21:53.864Z,99.90
2019-03-31T02:24:22.847Z,99.90
2019-03-31T02:26:52.100Z,99.90
2019-03-31T02:29:27.759Z,99.90
2019-03-31T02:31:56.943Z,99.90
2019-03-31T02:34:39.994Z,99.90
2019-03-31T02:37:08.858Z,99.90
2019-03-31T02:39:38.066Z,99.90
2019-03-31T02:42:14.220Z,99.90
2019-03-31T02:44:51.328Z,99.90
2019-03-31T02:47:34.080Z,99.90
2019-03-31T02:50:03.058Z,99.90
2019-03-31T02:52:32.013Z,99.90
2019-03-31T02:55:09.067Z,99.90
2019-03-31T02:57:38.192Z,99.90
2019-03-31T03:00:14.521Z,99.90
2019-03-31T03:02:43.739Z,99.90
2019-03-31T03:05:19.757Z,99.90
2019-03-31T03:07:55.974Z,99.90
2019-03-31T03:10:25.589Z,99.90
2019-03-31T03:13:02.563Z,99.90
2019-03-31T03:15:33.073Z,99.90
2019-03-31T03:18:02.195Z,99.90
2019-03-31T03:20:38.566Z,99.90
2019-03-31T03:23:07.401Z,99.90
2019-03-31T03:25:55.932Z,99.90
2019-03-31T03:28:14.861Z,99.90
2019-03-31T03:30:44.345Z,99.90
2019-03-31T03:33:21.301Z,99.90
2019-03-31T03:35:57.093Z,99.90
2019-03-31T03:38:33.364Z,99.90
2019-03-31T03:41:02.764Z,99.90
2019-03-31T03:43:54.075Z,99.90
2019-03-31T03:46:16.170Z,99.90
2019-03-31T03:49:00.958Z,99.90
2019-03-31T03:51:30.178Z,99.90
2019-03-31T03:53:59.582Z,99.90
2019-03-31T03:56:35.151Z,99.90
2019-03-31T03:59:04.023Z,99.90
2019-03-31T04:01:40.426Z,99.90
2019-03-31T04:04:09.485Z,99.90
2019-03-31T04:06:38.892Z,99.90
2019-03-31T04:09:14.339Z,99.90
2019-03-31T04:11:43.465Z,99.90
2019-03-31T04:14:19.586Z,99.90
2019-03-31T04:16:48.603Z,99.90
2019-03-31T04:19:24.268Z,99.90
2019-03-31T04:21:53.332Z,99.90
2019-03-31T04:24:22.526Z,99.90
2019-03-31T04:26:59.197Z,99.90
2019-03-31T04:29:28.407Z,99.90
2019-03-31T04:32:04.274Z,99.90
2019-03-31T04:34:33.101Z,99.90
2019-03-31T04:37:08.796Z,99.90
2019-03-31T04:39:44.696Z,99.90
2019-03-31T04:42:13.750Z,99.90
2019-03-31T04:44:50.299Z,99.90
2019-03-31T04:47:26.486Z,99.90
2019-03-31T04:50:02.443Z,99.90
2019-03-31T04:52:31.434Z,99.90
2019-03-31T04:55:00.484Z,99.90
2019-03-31T04:57:37.413Z,99.90
2019-03-31T05:00:06.723Z,99.90
2019-03-31T05:02:42.247Z,99.90
2019-03-31T05:05:11.116Z,99.90
2019-03-31T05:07:39.953Z,99.90
2019-03-31T05:10:16.206Z,99.90
2019-03-31T05:12:45.296Z,99.90
2019-03-31T05:15:21.155Z,99.90
2019-03-31T05:17:50.265Z,99.90
2019-03-31T05:20:19.352Z,99.90
2019-03-31T05:22:55.355Z,99.90
2019-03-31T05:25:24.495Z,99.90
2019-03-31T05:28:00.663Z,99.90
2019-03-31T05:30:29.866Z,99.90
2019-03-31T05:33:00.402Z,99.90
2019-03-31T05:35:36.040Z,99.90
2019-03-31T05:38:11.299Z,99.90
2019-03-31T05:40:47.465Z,99.90
2019-03-31T05:43:16.645Z,99.90
2019-03-31T05:45:52.600Z,99.90
2019-03-31T05:48:28.963Z,99.90
2019-03-31T05:51:04.308Z,99.90
2019-03-31T05:53:33.188Z,99.90
2019-03-31T05:56:02.281Z,99.90
2019-03-31T05:58:38.120Z,99.90
2019-03-31T06:01:08.957Z,99.90
2019-03-31T06:03:45.049Z,99.90
2019-03-31T06:06:13.937Z,99.90
2019-03-31T06:08:43.048Z,99.90
2019-03-31T06:11:18.866Z,99.90
2019-03-31T06:13:47.779Z,99.90
2019-03-31T06:16:24.744Z,99.90
2019-03-31T06:18:54.188Z,99.90
2019-03-31T06:21:23.260Z,99.90
2019-03-31T06:23:58.852Z,99.90
2019-03-31T06:26:27.806Z,99.90
2019-03-31T06:29:03.565Z,99.90
2019-03-31T06:31:32.756Z,99.90
2019-03-31T06:34:01.651Z,99.90
2019-03-31T06:36:37.929Z,99.90
2019-03-31T06:39:13.349Z,99.90
2019-03-31T06:41:49.827Z,99.90
2019-03-31T06:44:19.127Z,99.90
2019-03-31T06:46:54.376Z,99.90
2019-03-31T06:49:23.545Z,99.90
2019-03-31T06:51:52.764Z,99.90
2019-03-31T06:54:27.916Z,99.90
2019-03-31T06:56:56.811Z,99.90
2019-03-31T06:59:32.541Z,99.90
2019-03-31T07:02:03.327Z,99.90
2019-03-31T07:04:32.374Z,99.90
2019-03-31T07:07:07.826Z,99.90
2019-03-31T07:09:36.915Z,99.90
2019-03-31T07:12:12.772Z,99.90
2019-03-31T07:14:41.638Z,99.90
2019-03-31T07:17:10.758Z,99.90
2019-03-31T07:19:46.652Z,99.90
2019-03-31T07:22:15.709Z,99.90
2019-03-31T07:24:51.565Z,99.90
2019-03-31T07:27:20.475Z,99.90
2019-03-31T07:29:49.344Z,99.90
2019-03-31T07:32:25.827Z,99.90
2019-03-31T07:34:55.020Z,99.90
2019-03-31T07:37:31.084Z,99.90
2019-03-31T07:40:12.693Z,99.90
2019-03-31T07:42:51.068Z,99.90
2019-03-31T07:45:21.508Z,99.90
2019-03-31T07:48:07.889Z,99.90
2019-03-31T07:50:35.184Z,99.90
2019-03-31T07:53:04.037Z,99.90
2019-03-31T07:55:40.418Z,99.90
2019-03-31T07:58:09.930Z,99.90
2019-03-31T08:00:46.397Z,99.90
2019-03-31T08:03:15.693Z,99.90
2019-03-31T08:05:44.791Z,99.90
2019-03-31T08:08:21.608Z,99.90
2019-03-31T08:10:50.528Z,99.90
2019-03-31T08:13:26.230Z,99.90
2019-03-31T08:15:55.209Z,99.90
2019-03-31T08:18:24.840Z,99.90
2019-03-31T08:21:00.575Z,99.90
2019-03-31T08:23:29.758Z,99.90
2019-03-31T08:26:04.960Z,99.90
2019-03-31T08:28:33.829Z,99.90
2019-03-31T08:31:02.785Z,99.90
2019-03-31T08:33:39.793Z,99.90
2019-03-31T08:36:08.760Z,99.90
2019-03-31T08:38:44.964Z,99.90
2019-03-31T08:41:21.458Z,99.90
2019-03-31T08:43:58.065Z,99.90
2019-03-31T08:46:27.014Z,99.90
2019-03-31T08:49:09.668Z,99.90
2019-03-31T08:51:45.015Z,99.90
2019-03-31T08:54:21.085Z,99.90
2019-03-31T08:56:50.273Z,99.90
2019-03-31T08:59:20.096Z,99.90
2019-03-31T09:01:56.357Z,99.90
2019-03-31T09:04:25.230Z,99.90
2019-03-31T09:07:01.335Z,99.90
2019-03-31T09:09:30.214Z,99.90
2019-03-31T09:11:59.292Z,99.90
2019-03-31T09:14:35.193Z,98.40
2019-03-31T09:17:04.126Z,90.20
2019-03-31T09:19:40.458Z,82.30
2019-03-31T09:22:09.608Z,81.30
2019-03-31T09:24:38.704Z,81.00
2019-03-31T09:27:14.183Z,80.90
2019-03-31T09:29:43.114Z,79.30
2019-03-31T09:32:19.513Z,82.60
2019-03-31T09:34:48.456Z,86.20
2019-03-31T09:37:17.786Z,90.30
2019-03-31T09:39:53.046Z,92.30
2019-03-31T09:42:28.561Z,93.30
2019-03-31T09:45:04.886Z,94.70
2019-03-31T09:47:33.771Z,96.00
2019-03-31T09:50:17.498Z,96.80
2019-03-31T09:52:46.355Z,97.50
2019-03-31T09:55:15.310Z,98.90
2019-03-31T09:57:51.814Z,99.90
2019-03-31T10:00:43.963Z,99.90
2019-03-31T10:03:22.070Z,99.90
2019-03-31T10:05:51.605Z,99.90
2019-03-31T10:08:22.293Z,99.90
2019-03-31T10:11:12.718Z,99.90
2019-03-31T10:13:48.371Z,99.90
2019-03-31T10:16:24.018Z,99.90
2019-03-31T10:18:53.114Z,99.90
2019-03-31T10:21:21.978Z,99.90
2019-03-31T10:23:59.085Z,99.90
2019-03-31T10:26:32.114Z,99.90
2019-03-31T10:29:05.913Z,99.90
2019-03-31T10:31:34.981Z,99.90
2019-03-31T10:34:05.192Z,99.90
2019-03-31T10:36:44.610Z,99.90
2019-03-31T10:39:12.004Z,99.90
2019-03-31T10:41:41.195Z,99.90
2019-03-31T10:44:17.259Z,99.90
2019-03-31T10:46:46.168Z,99.90
2019-03-31T10:49:21.800Z,99.90
2019-03-31T10:51:57.748Z,99.90
2019-03-31T10:54:33.969Z,99.90
2019-03-31T10:57:02.875Z,99.90
2019-03-31T10:59:31.800Z,99.90
2019-03-31T11:02:07.959Z,99.90
2019-03-31T11:04:37.062Z,99.90
2019-03-31T11:07:13.424Z,99.90
2019-03-31T11:09:42.406Z,99.90
2019-03-31T11:12:11.525Z,99.90
2019-03-31T11:14:47.775Z,99.90
2019-03-31T11:17:16.801Z,99.90
2019-03-31T11:19:45.763Z,99.90
2019-03-31T11:22:23.477Z,99.90
2019-03-31T11:24:52.385Z,99.90
2019-03-31T11:27:21.665Z,99.90
2019-03-31T11:29:57.203Z,99.90
2019-03-31T11:32:26.090Z,99.90
2019-03-31T11:34:55.085Z,99.90
2019-03-31T11:37:31.066Z,99.90
2019-03-31T11:40:00.390Z,99.90
2019-03-31T11:42:29.842Z,99.90
2019-03-31T11:45:06.234Z,99.90
2019-03-31T11:47:41.914Z,99.90
2019-03-31T11:50:19.129Z,99.90
2019-03-31T11:52:54.228Z,99.90
2019-03-31T11:55:36.820Z,99.90
2019-03-31T11:58:05.672Z,99.90
2019-03-31T12:00:36.172Z,99.90
2019-03-31T12:03:12.281Z,99.90
2019-03-31T12:05:41.379Z,99.90
2019-03-31T12:08:16.500Z,99.90
2019-03-31T12:10:45.427Z,99.90
2019-03-31T12:13:14.419Z,99.90
2019-03-31T12:15:50.574Z,99.90
2019-03-31T12:18:19.472Z,99.90
2019-03-31T12:20:56.128Z,99.90
2019-03-31T12:23:25.000Z,99.90
2019-03-31T12:25:54.224Z,99.90
2019-03-31T12:28:30.280Z,99.90
2019-03-31T12:30:59.178Z,99.90
2019-03-31T12:33:34.616Z,99.90
2019-03-31T12:36:04.737Z,99.90
2019-03-31T12:38:33.635Z,99.90
2019-03-31T12:41:08.998Z,99.90
2019-03-31T12:43:38.069Z,99.90
2019-03-31T12:46:20.709Z,99.90
2019-03-31T12:48:49.533Z,99.90
2019-03-31T12:51:31.593Z,99.90
2019-03-31T12:54:07.043Z,99.90
2019-03-31T12:56:42.782Z,99.90
2019-03-31T12:59:12.074Z,99.90
2019-03-31T13:04:53.284Z,99.90
2019-03-31T13:07:22.119Z,99.90
2019-03-31T13:09:57.813Z,99.90
2019-03-31T13:12:26.830Z,99.90
2019-03-31T13:14:56.006Z,99.90
2019-03-31T13:17:33.497Z,99.90
2019-03-31T13:20:02.592Z,99.90
2019-03-31T13:22:38.340Z,99.90
2019-03-31T13:25:08.255Z,99.90
2019-03-31T13:27:37.770Z,99.90
2019-03-31T13:30:16.181Z,99.90
2019-03-31T13:32:45.078Z,99.90
2019-03-31T13:35:22.051Z,99.90
2019-03-31T13:37:51.220Z,99.90
2019-03-31T13:40:20.758Z,99.90
2019-03-31T13:42:55.892Z,99.90
2019-03-31T13:45:24.808Z,99.90
2019-03-31T13:48:08.630Z,99.90
2019-03-31T13:50:37.506Z,99.90
2019-03-31T13:53:16.142Z,99.90
2019-03-31T13:55:43.541Z,99.90
2019-03-31T13:58:13.791Z,99.90
2019-03-31T14:00:50.564Z,99.90
2019-03-31T14:03:26.174Z,99.90
2019-03-31T14:06:10.041Z,99.80
2019-03-31T14:08:39.389Z,99.40
2019-03-31T14:11:08.387Z,99.70
2019-03-31T14:13:44.651Z,99.80
2019-03-31T14:16:13.549Z,99.20
2019-03-31T14:18:49.107Z,99.20
2019-03-31T14:21:18.386Z,98.10
2019-03-31T14:23:48.094Z,97.90
2019-03-31T14:26:24.268Z,98.40
2019-03-31T14:28:53.862Z,98.60
2019-03-31T14:31:29.849Z,98.70
2019-03-31T14:33:59.136Z,98.50
2019-03-31T14:36:28.526Z,96.90
2019-03-31T14:39:04.621Z,97.00
2019-03-31T14:41:33.495Z,96.90
2019-03-31T14:44:09.442Z,96.00
2019-03-31T14:46:38.772Z,95.60
2019-03-31T14:49:21.469Z,95.40
2019-03-31T14:51:50.448Z,94.30
2019-03-31T14:54:19.755Z,94.40
2019-03-31T14:56:56.015Z,94.30
2019-03-31T14:59:25.113Z,94.70
2019-03-31T15:02:00.552Z,95.20
2019-03-31T15:04:36.208Z,95.70
2019-03-31T15:07:28.090Z,95.60
2019-03-31T15:09:58.382Z,95.40
2019-03-31T15:12:28.377Z,95.30
2019-03-31T15:15:04.339Z,95.90
2019-03-31T15:17:33.239Z,95.20
2019-03-31T15:20:09.492Z,95.20
2019-03-31T15:22:38.589Z,94.80
2019-03-31T15:25:07.692Z,95.20
2019-03-31T15:27:44.066Z,95.30
2019-03-31T15:30:13.133Z,95.40
2019-03-31T15:32:42.067Z,95.00
2019-03-31T15:35:18.863Z,94.80
2019-03-31T15:37:47.808Z,94.50
2019-03-31T15:40:17.211Z,93.60
2019-03-31T15:42:53.062Z,93.60
2019-03-31T15:45:22.162Z,93.30
2019-03-31T15:47:51.341Z,92.70
2019-03-31T15:50:33.511Z,93.10
2019-03-31T15:53:02.490Z,92.90
2019-03-31T15:55:38.918Z,93.10
2019-03-31T15:58:08.017Z,93.00
2019-03-31T16:00:37.241Z,92.70
2019-03-31T16:03:12.764Z,93.30
2019-03-31T16:05:48.730Z,93.40
2019-03-31T16:08:31.865Z,92.80
2019-03-31T16:11:00.716Z,93.10
2019-03-31T16:13:30.140Z,93.00
2019-03-31T16:16:07.547Z,92.10
2019-03-31T16:18:36.438Z,92.10
2019-03-31T16:21:12.303Z,91.80
2019-03-31T16:23:42.405Z,91.40
2019-03-31T16:26:11.629Z,91.30
2019-03-31T16:28:47.842Z,90.70
2019-03-31T16:31:17.101Z,90.90
2019-03-31T16:33:53.040Z,91.20
2019-03-31T16:36:22.009Z,91.60
2019-03-31T16:38:51.134Z,91.80
2019-03-31T16:41:26.763Z,92.10
2019-03-31T16:43:55.671Z,92.40
2019-03-31T16:46:24.708Z,92.40
2019-03-31T16:49:07.982Z,92.30
2019-03-31T16:51:37.076Z,92.10
2019-03-31T16:54:12.721Z,92.00
2019-03-31T16:56:41.820Z,92.50
2019-03-31T16:59:10.708Z,92.20
2019-03-31T17:01:46.807Z,92.10
2019-03-31T17:04:15.865Z,92.40
2019-03-31T17:06:51.729Z,92.40
2019-03-31T17:09:27.937Z,94.40
2019-03-31T17:12:04.063Z,95.00
2019-03-31T17:14:32.939Z,95.40
2019-03-31T17:17:02.011Z,95.80
2019-03-31T17:19:37.767Z,95.30
2019-03-31T17:22:07.093Z,95.40
2019-03-31T17:24:36.183Z,95.20
2019-03-31T17:27:13.962Z,95.00
2019-03-31T17:29:41.956Z,94.40
2019-03-31T17:32:18.022Z,94.00
2019-03-31T17:34:47.032Z,94.20
2019-03-31T17:37:23.382Z,94.50
2019-03-31T17:40:06.098Z,94.70
2019-03-31T17:42:38.696Z,95.00
2019-03-31T17:45:08.763Z,95.20
2019-03-31T17:47:38.168Z,95.40
2019-03-31T17:50:24.049Z,95.80
2019-03-31T17:52:53.183Z,95.80
2019-03-31T17:55:29.455Z,96.10
2019-03-31T17:57:58.343Z,95.80
2019-03-31T18:00:27.258Z,96.30
2019-03-31T18:03:03.490Z,95.70
2019-03-31T18:05:32.366Z,96.00
2019-03-31T18:08:09.054Z,95.70
2019-03-31T18:10:38.021Z,95.80
2019-03-31T18:13:07.249Z,95.80
2019-03-31T18:15:43.305Z,96.00
2019-03-31T18:18:12.198Z,96.20
2019-03-31T18:20:48.488Z,96.80
2019-03-31T18:23:17.474Z,96.70
2019-03-31T18:25:46.449Z,96.30
2019-03-31T18:28:22.594Z,96.30
2019-03-31T18:30:51.455Z,96.30
2019-03-31T18:33:28.510Z,96.20
2019-03-31T18:35:57.577Z,95.80
2019-03-31T18:38:26.464Z,96.30
2019-03-31T18:41:03.837Z,96.10
2019-03-31T18:43:33.034Z,96.40
2019-03-31T18:46:08.003Z,96.30
2019-03-31T18:48:37.190Z,96.50
2019-03-31T18:51:21.033Z,96.50
2019-03-31T18:54:03.646Z,96.70
2019-03-31T18:56:41.331Z,96.60
2019-03-31T18:59:29.693Z,96.80
2019-03-31T19:02:07.185Z,97.00
2019-03-31T19:04:55.852Z,97.10
2019-03-31T19:07:43.474Z,97.10
2019-03-31T19:10:24.831Z,97.40
2019-03-31T19:13:13.960Z,97.30
2019-03-31T19:15:47.556Z,97.60
2019-03-31T19:18:30.866Z,97.50
2019-03-31T19:21:10.858Z,97.20
2019-03-31T19:24:05.950Z,96.90
2019-03-31T19:26:52.981Z,96.70
2019-03-31T19:29:32.774Z,97.00
2019-03-31T19:32:19.277Z,97.00
2019-03-31T19:34:58.418Z,96.80
2019-03-31T19:37:43.632Z,97.00
2019-03-31T19:40:21.384Z,97.20
2019-03-31T19:43:07.202Z,97.40
2019-03-31T19:46:00.883Z,97.00
2019-03-31T19:48:34.347Z,97.10
2019-03-31T19:51:14.293Z,97.30
2019-03-31T19:54:38.478Z,97.00
2019-03-31T19:57:28.265Z,96.90
2019-03-31T20:00:04.942Z,96.90
2019-03-31T20:02:54.437Z,97.00
2019-03-31T20:05:41.277Z,96.80
2019-03-31T20:08:30.413Z,96.80
2019-03-31T20:11:23.469Z,96.80
2019-03-31T20:14:06.057Z,96.70
2019-03-31T20:16:36.604Z,96.80
2019-03-31T20:19:09.984Z,97.00
2019-03-31T20:22:05.502Z,96.60
2019-03-31T20:24:36.236Z,96.70
2019-03-31T20:27:14.072Z,97.00
2019-03-31T20:29:44.855Z,97.10
2019-03-31T20:32:37.319Z,97.30
2019-03-31T20:35:15.007Z,97.70
2019-03-31T20:37:52.646Z,97.40
2019-03-31T20:40:23.242Z,97.50
2019-03-31T20:43:03.809Z,97.40
2019-03-31T20:45:32.719Z,97.60
2019-03-31T20:48:01.598Z,97.50
2019-03-31T20:50:38.060Z,97.60
2019-03-31T20:53:06.953Z,97.40
2019-03-31T20:55:49.622Z,97.50
2019-03-31T20:58:18.379Z,97.70
2019-03-31T21:00:47.216Z,98.00
2019-03-31T21:03:23.409Z,97.60
2019-03-31T21:05:52.218Z,98.00
2019-03-31T21:08:27.638Z,97.90
2019-03-31T21:11:03.958Z,97.70
2019-03-31T21:13:39.784Z,98.00
2019-03-31T21:16:08.641Z,97.40
2019-03-31T21:18:37.554Z,97.80
2019-03-31T21:21:13.914Z,97.70
2019-03-31T21:23:43.008Z,97.80
2019-03-31T21:26:12.103Z,97.90
2019-03-31T21:28:48.162Z,98.10
2019-03-31T21:31:17.258Z,98.50
2019-03-31T21:33:46.362Z,98.70
2019-03-31T21:36:22.415Z,98.70
2019-03-31T21:38:51.305Z,99.00
2019-03-31T21:41:26.686Z,99.00
2019-03-31T21:43:55.844Z,99.10
2019-03-31T21:46:24.940Z,99.00
2019-03-31T21:49:01.207Z,99.10
2019-03-31T21:51:30.020Z,99.30
2019-03-31T21:54:06.157Z,99.30
2019-03-31T22:07:07.506Z,99.50
2019-03-31T22:09:43.141Z,99.90
2019-03-31T22:12:26.783Z,99.90
2019-03-31T22:14:55.865Z,99.90
2019-03-31T22:17:24.864Z,99.90
2019-03-31T22:20:01.580Z,99.90
2019-03-31T22:22:30.877Z,99.90
2019-03-31T22:25:07.436Z,99.90
2019-03-31T22:27:36.636Z,99.90
2019-03-31T22:30:07.498Z,99.90
2019-03-31T22:32:43.603Z,99.90
2019-03-31T22:35:12.712Z,99.90
2019-03-31T22:37:49.995Z,99.90
2019-03-31T22:40:18.881Z,99.90
2019-03-31T22:42:47.802Z,99.90
2019-03-31T22:45:23.935Z,99.90
2019-03-31T22:47:52.954Z,99.90
2019-03-31T22:50:28.910Z,99.90
2019-03-31T22:52:57.849Z,99.90
2019-03-31T22:55:26.915Z,99.90
2019-03-31T22:58:10.418Z,99.90
2019-03-31T23:00:39.610Z,99.90
2019-03-31T23:03:15.674Z,99.90
2019-03-31T23:05:44.766Z,99.90
2019-03-31T23:08:20.440Z,99.90
2019-03-31T23:10:56.681Z,99.90
2019-03-31T23:13:39.599Z,99.90
2019-03-31T23:16:08.589Z,99.90
2019-03-31T23:18:38.097Z,99.90
2019-03-31T23:21:13.759Z,99.90
2019-03-31T23:23:42.766Z,99.90
2019-03-31T23:26:18.810Z,99.90
2019-03-31T23:28:47.895Z,99.90
2019-03-31T23:31:17.824Z,99.90
2019-03-31T23:33:53.261Z,99.90
2019-03-31T23:36:22.559Z,99.90
2019-03-31T23:38:58.545Z,99.90
2019-03-31T23:41:28.225Z,99.90
2019-03-31T23:43:57.100Z,99.90
2019-03-31T23:46:32.969Z,99.90
2019-03-31T23:49:02.085Z,99.90
2019-03-31T23:51:37.933Z,99.90
2019-03-31T23:54:06.848Z,99.90
2019-03-31T23:56:35.914Z,99.90
2019-03-31T23:59:19.242Z,99.90
